Time;durP1;ratioP1;P1;durP2;ratioP2;P2;SDS_P1;SDS_P2;PMS_P1;PMS_P2;Temp;Humidity;BMP_temperature;BMP_pressure;BME280_temperature;BME280_humidity;BME280_pressure;Samples;Min_cycle;Max_cycle;Signal;HPM_P1;HPM_P2
2022/08/05 00:02:22;;;;;;;6.03;2.72;;;19.70;99.90;;;;;;4841169;29;20030;-36
2022/08/05 00:04:48;;;;;;;3.28;2.35;;;19.70;99.90;;;;;;4844478;29;20202;-42
2022/08/05 00:07:14;;;;;;;5.77;2.43;;;19.60;99.90;;;;;;4846804;29;20474;-46
2022/08/05 00:09:39;;;;;;;3.03;1.92;;;19.60;99.90;;;;;;4845753;29;20042;-39
2022/08/05 00:12:05;;;;;;;8.50;2.60;;;19.60;99.90;;;;;;4826231;29;20042;-39
2022/08/05 00:14:31;;;;;;;8.80;2.67;;;19.60;99.90;;;;;;4843580;29;20041;-38
2022/08/05 00:16:57;;;;;;;5.88;1.77;;;19.60;99.90;;;;;;4842207;29;20109;-37
2022/08/05 00:19:23;;;;;;;6.07;1.80;;;19.60;99.90;;;;;;4838206;29;20056;-40
2022/08/05 00:21:48;;;;;;;6.07;2.03;;;19.60;99.90;;;;;;4829538;29;20037;-36
2022/08/05 00:24:14;;;;;;;3.00;2.58;;;19.60;99.90;;;;;;4842592;29;20509;-43
2022/08/05 00:26:39;;;;;;;10.90;2.10;;;19.60;99.90;;;;;;4848490;29;20527;-40
2022/08/05 00:29:05;;;;;;;4.53;1.90;;;19.50;99.90;;;;;;4845031;29;20034;-33
2022/08/05 00:31:31;;;;;;;9.25;2.13;;;19.50;99.90;;;;;;4850013;29;20052;-37
2022/08/05 00:33:56;;;;;;;6.03;2.40;;;19.50;99.90;;;;;;4851346;29;20514;-38
2022/08/05 00:36:23;;;;;;;4.68;1.80;;;19.50;99.90;;;;;;4847034;29;20467;-33
2022/08/05 00:38:49;;;;;;;10.20;2.07;;;19.50;99.90;;;;;;4844705;29;20635;-36
2022/08/05 00:41:29;;;;;;;5.75;2.22;;;19.50;99.90;;;;;;4830123;29;20287;-39
2022/08/05 00:43:55;;;;;;;2.80;2.20;;;19.50;99.90;;;;;;4841607;29;20110;-37
2022/08/05 00:46:21;;;;;;;6.32;1.80;;;19.50;99.90;;;;;;4847053;29;20090;-41
2022/08/05 00:48:47;;;;;;;5.72;1.88;;;19.60;99.90;;;;;;4845752;29;20038;-38
2022/08/05 00:51:13;;;;;;;9.85;2.30;;;19.50;99.90;;;;;;4847113;29;20493;-34
2022/08/05 00:53:39;;;;;;;3.53;2.00;;;19.50;99.90;;;;;;4814680;29;20506;-33
2022/08/05 00:56:05;;;;;;;4.53;1.90;;;19.50;99.90;;;;;;4844758;29;20030;-40
2022/08/05 00:58:31;;;;;;;2.05;1.67;;;19.50;99.90;;;;;;4848670;29;20142;-37
2022/08/05 01:00:56;;;;;;;5.50;1.70;;;19.50;99.90;;;;;;4846765;29;20025;-33
2022/08/05 01:03:23;;;;;;;6.40;2.38;;;19.50;99.90;;;;;;4842590;29;20203;-33
2022/08/05 01:05:49;;;;;;;3.42;1.65;;;19.50;99.90;;;;;;4845689;29;20161;-32
2022/08/05 01:08:15;;;;;;;5.10;1.52;;;19.50;99.90;;;;;;4842706;29;20036;-33
2022/08/05 01:10:47;;;;;;;3.55;2.25;;;19.50;99.90;;;;;;4844804;29;20041;-40
2022/08/05 01:13:20;;;;;;;4.68;1.77;;;19.50;99.90;;;;;;4850391;29;20037;-38
2022/08/05 01:15:55;;;;;;;7.30;1.63;;;19.50;99.90;;;;;;4844218;29;20090;-33
2022/08/05 01:18:30;;;;;;;7.70;1.80;;;19.50;99.90;;;;;;4847194;29;20056;-37
2022/08/05 01:21:18;;;;;;;2.58;1.88;;;19.50;99.90;;;;;;4840886;29;20390;-38
2022/08/05 01:24:21;;;;;;;12.50;1.80;;;19.50;99.90;;;;;;4843066;29;20513;-30
2022/08/05 01:27:08;;;;;;;2.55;1.40;;;19.50;99.90;;;;;;4842232;29;20061;-35
2022/08/05 01:29:40;;;;;;;;;;;19.40;99.90;;;;;;4844513;29;20038;-33
2022/08/05 01:32:10;;;;;;;6.47;1.33;;;19.40;99.90;;;;;;4841734;29;20007;-31
2022/08/05 01:34:44;;;;;;;1.70;1.60;;;19.40;99.90;;;;;;4849387;29;20493;-37
2022/08/05 01:37:16;;;;;;;1.70;1.30;;;19.40;99.90;;;;;;4843483;29;20094;-33
2022/08/05 01:39:45;;;;;;;6.15;1.35;;;19.40;99.90;;;;;;4849871;29;20110;-32
2022/08/05 01:42:15;;;;;;;4.93;1.63;;;19.40;99.90;;;;;;4844084;29;20044;-34
2022/08/05 01:44:41;;;;;;;5.18;1.50;;;19.50;99.90;;;;;;4848629;29;20486;-35
2022/08/05 01:47:09;;;;;;;5.88;1.63;;;19.50;99.90;;;;;;4849496;29;20478;-38
2022/08/05 01:49:38;;;;;;;3.83;1.50;;;19.60;99.90;;;;;;4841379;29;20049;-48
2022/08/05 01:52:06;;;;;;;8.00;1.83;;;19.60;99.90;;;;;;4850621;29;20399;-40
2022/08/05 01:54:41;;;;;;;6.75;1.90;;;19.50;99.90;;;;;;4846128;29;20029;-40
2022/08/05 01:57:08;;;;;;;5.78;1.73;;;19.50;99.90;;;;;;4844688;29;20519;-38
2022/08/05 01:59:38;;;;;;;3.45;2.05;;;19.50;99.90;;;;;;4840667;29;20033;-38
2022/08/05 02:02:05;;;;;;;6.18;2.13;;;19.40;99.90;;;;;;4846272;29;20087;-39
2022/08/05 02:04:35;;;;;;;11.38;3.08;;;19.50;99.90;;;;;;4828933;29;20045;-35
2022/08/05 02:07:01;;;;;;;8.20;1.98;;;19.40;99.90;;;;;;4845439;29;20229;-38
2022/08/05 02:09:27;;;;;;;3.53;2.10;;;19.30;99.90;;;;;;4846812;29;20028;-37
2022/08/05 02:12:15;;;;;;;5.25;2.03;;;19.30;99.90;;;;;;4844357;29;20315;-35
2022/08/05 02:15:04;;;;;;;5.32;1.73;;;19.30;99.90;;;;;;4845762;29;20264;-42
2022/08/05 02:17:40;;;;;;;4.43;2.20;;;19.30;99.90;;;;;;4849090;29;20041;-33
2022/08/05 02:20:11;;;;;;;6.20;1.80;;;19.20;99.90;;;;;;4844669;29;20509;-38
2022/08/05 02:22:43;;;;;;;4.22;1.88;;;19.30;99.90;;;;;;4845859;29;20136;-38
2022/08/05 02:25:16;;;;;;;7.57;1.83;;;19.30;99.90;;;;;;4846948;29;20604;-34
2022/08/05 02:27:47;;;;;;;3.60;1.20;;;19.30;99.90;;;;;;4841238;29;20033;-37
2022/08/05 02:30:17;;;;;;;5.38;1.80;;;19.30;99.90;;;;;;4843613;29;20116;-38
2022/08/05 02:32:48;;;;;;;6.82;2.03;;;19.30;99.90;;;;;;4841322;29;20042;-39
2022/08/05 02:35:18;;;;;;;3.75;1.52;;;19.30;99.90;;;;;;4844695;29;20029;-38
2022/08/05 02:37:45;;;;;;;2.33;1.80;;;19.20;99.90;;;;;;4844538;29;20037;-39
2022/08/05 02:40:12;;;;;;;5.90;1.73;;;19.20;99.90;;;;;;4846027;29;20182;-36
2022/08/05 02:42:38;;;;;;;5.43;1.50;;;19.20;99.90;;;;;;4842642;29;20687;-40
2022/08/05 02:45:06;;;;;;;12.05;2.15;;;19.10;99.90;;;;;;4844136;29;20114;-40
2022/08/05 02:47:34;;;;;;;8.13;2.20;;;19.10;99.90;;;;;;4844322;29;20085;-35
2022/08/05 02:50:01;;;;;;;4.43;1.40;;;19.00;99.90;;;;;;4847049;29;20491;-37
2022/08/05 02:52:28;;;;;;;4.78;1.55;;;19.00;99.90;;;;;;4840133;29;20074;-36
2022/08/05 02:54:55;;;;;;;4.32;1.40;;;19.00;99.90;;;;;;4826132;29;20621;-32
2022/08/05 02:57:22;;;;;;;11.98;1.70;;;19.00;99.90;;;;;;4843664;29;21422;-39
2022/08/05 02:59:49;;;;;;;1.63;1.30;;;18.90;99.90;;;;;;4845353;29;20462;-30
2022/08/05 03:02:19;;;;;;;5.05;1.60;;;18.90;99.90;;;;;;4842790;29;20029;-35
2022/08/05 03:04:45;;;;;;;6.57;2.03;;;18.90;99.90;;;;;;4844949;29;20443;-39
2022/08/05 03:07:12;;;;;;;7.55;1.45;;;19.00;99.90;;;;;;4843651;29;20064;-38
2022/08/05 03:09:43;;;;;;;3.67;1.95;;;19.00;99.90;;;;;;4845172;29;20021;-37
2022/08/05 03:12:08;;;;;;;5.70;1.55;;;18.90;99.90;;;;;;4841030;29;20774;-34
2022/08/05 03:14:35;;;;;;;4.63;1.50;;;18.90;99.90;;;;;;4844613;29;20116;-43
2022/08/05 03:17:00;;;;;;;2.88;1.40;;;19.00;99.90;;;;;;4846345;29;20029;-30
2022/08/05 03:19:26;;;;;;;2.97;1.40;;;18.90;99.90;;;;;;4845103;29;20052;-37
2022/08/05 03:21:52;;;;;;;3.33;1.35;;;19.00;99.90;;;;;;4843944;29;20230;-39
2022/08/05 03:24:18;;;;;;;3.58;1.88;;;18.90;99.90;;;;;;4848527;29;20487;-40
2022/08/05 03:26:45;;;;;;;5.40;1.73;;;18.90;99.90;;;;;;4841869;29;20402;-34
2022/08/05 03:29:10;;;;;;;2.28;1.35;;;18.80;99.90;;;;;;4845106;29;20287;-32
2022/08/05 03:31:37;;;;;;;3.58;1.25;;;18.80;99.90;;;;;;4840532;29;20290;-35
2022/08/05 03:34:04;;;;;;;2.35;1.27;;;18.80;99.90;;;;;;4845324;29;20080;-40
2022/08/05 03:36:30;;;;;;;;;;;18.80;99.90;;;;;;4843362;29;20036;-34
2022/08/05 03:38:56;;;;;;;2.58;1.02;;;18.80;99.90;;;;;;4825470;29;19915;-38
2022/08/05 03:41:22;;;;;;;3.55;1.40;;;18.80;99.90;;;;;;4826715;29;20523;-38
2022/08/05 03:43:47;;;;;;;3.05;1.27;;;18.80;99.90;;;;;;4842667;29;20077;-38
2022/08/05 03:46:13;;;;;;;1.38;1.27;;;18.80;99.90;;;;;;4840831;29;20064;-35
2022/08/05 03:48:39;;;;;;;8.18;1.20;;;18.80;99.90;;;;;;4842238;29;20487;-39
2022/08/05 03:51:15;;;;;;;6.63;1.30;;;18.70;99.90;;;;;;4846118;29;20029;-34
2022/08/05 03:53:53;;;;;;;5.47;1.30;;;18.70;99.90;;;;;;4833766;29;20047;-36
2022/08/05 03:56:35;;;;;;;3.83;1.20;;;18.70;99.90;;;;;;4844983;29;20062;-31
2022/08/05 03:59:05;;;;;;;2.80;1.50;;;18.70;99.90;;;;;;4848169;29;20478;-37
2022/08/05 04:01:36;;;;;;;1.65;1.15;;;18.70;99.90;;;;;;4843797;29;21276;-36
2022/08/05 04:04:03;;;;;;;2.13;1.05;;;18.70;99.90;;;;;;4848167;29;20037;-36
2022/08/05 04:06:29;;;;;;;1.38;1.17;;;18.70;99.90;;;;;;4845990;29;20033;-40
2022/08/05 04:09:14;;;;;;;3.80;1.52;;;18.70;99.90;;;;;;4844414;29;20034;-37
2022/08/05 04:11:40;;;;;;;3.90;1.30;;;18.70;99.90;;;;;;4843519;29;20058;-35
2022/08/05 04:14:06;;;;;;;1.63;1.35;;;18.70;99.90;;;;;;4845092;29;20087;-37
2022/08/05 04:16:34;;;;;;;8.48;1.20;;;18.70;99.90;;;;;;4842452;29;20083;-34
2022/08/05 04:19:00;;;;;;;3.33;1.08;;;18.70;99.90;;;;;;4846320;29;20128;-37
2022/08/05 04:21:26;;;;;;;3.70;1.20;;;18.70;99.90;;;;;;4844068;29;20039;-38
2022/08/05 04:23:52;;;;;;;4.03;1.83;;;18.70;99.90;;;;;;4845650;29;20563;-34
2022/08/05 04:26:18;;;;;;;5.75;1.23;;;18.70;99.90;;;;;;4834849;29;20045;-33
2022/08/05 04:28:44;;;;;;;2.00;1.13;;;18.70;99.90;;;;;;4828842;29;20029;-33
2022/08/05 04:31:09;;;;;;;1.15;1.05;;;18.60;99.90;;;;;;4842888;29;20128;-41
2022/08/05 04:33:35;;;;;;;4.43;1.23;;;18.60;99.90;;;;;;4844247;29;20041;-39
2022/08/05 04:36:01;;;;;;;5.30;1.20;;;18.50;99.90;;;;;;4851658;29;20514;-34
2022/08/05 04:38:26;;;;;;;2.50;1.10;;;18.50;99.90;;;;;;4846998;29;20033;-31
2022/08/05 04:40:52;;;;;;;1.45;0.90;;;18.60;99.90;;;;;;4850532;29;20057;-37
2022/08/05 04:43:18;;;;;;;1.88;1.17;;;18.60;99.90;;;;;;4844598;29;20069;-37
2022/08/05 04:45:43;;;;;;;2.10;0.98;;;18.60;99.90;;;;;;4850640;29;20509;-40
2022/08/05 04:48:12;;;;;;;2.97;0.98;;;18.50;99.90;;;;;;4844505;29;20026;-37
2022/08/05 04:50:42;;;;;;;5.90;0.90;;;18.50;99.90;;;;;;4846918;29;20045;-35
2022/08/05 04:53:09;;;;;;;3.97;1.33;;;18.50;99.90;;;;;;4848132;29;20566;-36
2022/08/05 04:55:36;;;;;;;3.78;0.90;;;18.40;99.90;;;;;;4850341;29;20474;-37
2022/08/05 04:58:04;;;;;;;4.05;0.90;;;18.50;99.90;;;;;;4842163;29;20026;-39
2022/08/05 05:00:30;;;;;;;3.97;0.85;;;18.40;99.90;;;;;;4848681;29;20045;-34
2022/08/05 05:02:56;;;;;;;3.30;1.20;;;18.40;99.90;;;;;;4848168;29;20149;-42
2022/08/05 05:05:22;;;;;;;5.03;1.08;;;18.40;99.90;;;;;;4845712;29;20137;-38
2022/08/05 05:07:50;;;;;;;1.48;1.30;;;18.40;99.90;;;;;;4843745;29;20034;-38
2022/08/05 05:10:16;;;;;;;6.22;1.55;;;18.30;99.90;;;;;;4825716;29;20042;-38
2022/08/05 05:12:42;;;;;;;3.45;1.45;;;18.30;99.90;;;;;;4848031;29;20072;-38
2022/08/05 05:15:08;;;;;;;3.08;1.23;;;18.30;99.90;;;;;;4845785;29;20034;-47
2022/08/05 05:17:39;;;;;;;2.42;1.10;;;18.30;99.90;;;;;;4842405;29;20025;-40
2022/08/05 05:20:06;;;;;;;5.68;1.15;;;18.20;99.90;;;;;;4844041;29;20029;-35
2022/08/05 05:22:33;;;;;;;3.88;1.35;;;18.20;99.90;;;;;;4844805;29;20597;-39
2022/08/05 05:24:58;;;;;;;2.30;1.50;;;18.10;99.90;;;;;;4848278;29;20546;-39
2022/08/05 05:27:24;;;;;;;6.63;1.30;;;18.10;99.90;;;;;;4843403;29;20141;-39
2022/08/05 05:29:50;;;;;;;2.03;0.93;;;18.20;99.90;;;;;;4844738;29;20495;-36
2022/08/05 05:32:15;;;;;;;8.82;1.60;;;18.10;99.90;;;;;;4841675;29;20152;-34
2022/08/05 05:34:41;;;;;;;1.33;1.20;;;18.20;99.90;;;;;;4840697;29;20045;-40
2022/08/05 05:37:06;;;;;;;1.13;0.90;;;18.20;99.90;;;;;;4839225;29;20045;-37
2022/08/05 05:39:32;;;;;;;1.40;0.88;;;18.20;99.90;;;;;;4840166;29;20029;-39
2022/08/05 05:41:57;;;;;;;1.92;0.93;;;18.20;99.90;;;;;;4837775;29;20033;-36
2022/08/05 05:44:23;;;;;;;2.15;1.38;;;18.30;99.90;;;;;;4841338;29;20137;-39
2022/08/05 05:46:48;;;;;;;3.25;1.23;;;18.30;99.90;;;;;;4841110;29;20021;-36
2022/08/05 05:49:14;;;;;;;0.73;0.73;;;18.30;99.90;;;;;;4839474;29;20187;-35
2022/08/05 05:51:39;;;;;;;3.85;0.90;;;18.40;99.90;;;;;;4845554;29;20072;-40
2022/08/05 05:54:05;;;;;;;1.70;0.80;;;18.40;99.90;;;;;;4841271;29;20037;-38
2022/08/05 05:56:31;;;;;;;3.78;0.93;;;18.50;99.90;;;;;;4841047;29;20072;-43
2022/08/05 05:58:56;;;;;;;1.27;0.60;;;18.60;99.90;;;;;;4837989;29;20379;-42
2022/08/05 06:01:22;;;;;;;3.88;0.90;;;18.50;99.90;;;;;;4845008;29;20212;-36
2022/08/05 06:03:47;;;;;;;1.83;1.10;;;18.60;99.90;;;;;;4839864;29;20503;-36
2022/08/05 06:06:13;;;;;;;1.73;0.82;;;18.60;99.90;;;;;;4826288;29;20051;-38
2022/08/05 06:08:39;;;;;;;2.72;0.90;;;18.60;99.90;;;;;;4843583;29;20069;-40
2022/08/05 06:11:05;;;;;;;4.25;0.63;;;18.60;99.90;;;;;;4842880;29;20064;-38
2022/08/05 06:13:31;;;;;;;2.42;0.98;;;18.50;99.90;;;;;;4842187;29;20575;-37
2022/08/05 06:15:56;;;;;;;2.58;0.85;;;18.60;99.90;;;;;;4842364;29;20128;-35
2022/08/05 06:18:22;;;;;;;5.45;0.65;;;18.70;99.90;;;;;;4838552;29;20783;-40
2022/08/05 06:20:48;;;;;;;0.77;0.70;;;18.80;99.90;;;;;;4838590;29;20069;-36
2022/08/05 06:23:13;;;;;;;5.18;0.93;;;18.90;99.90;;;;;;4841401;29;20021;-35
2022/08/05 06:25:39;;;;;;;7.78;1.30;;;19.00;99.90;;;;;;4845086;29;20513;-40
2022/08/05 06:28:04;;;;;;;3.63;0.85;;;19.00;99.90;;;;;;4842425;29;20460;-45
2022/08/05 06:30:30;;;;;;;0.77;0.77;;;19.00;99.90;;;;;;4838394;29;20715;-41
2022/08/05 06:33:14;;;;;;;0.52;0.52;;;19.10;99.90;;;;;;4844240;29;20384;-43
2022/08/05 06:35:40;;;;;;;2.50;1.13;;;19.60;99.90;;;;;;4843199;29;20086;-39
2022/08/05 06:38:05;;;;;;;1.58;0.65;;;20.20;99.90;;;;;;4841965;29;20523;-35
2022/08/05 06:40:31;;;;;;;0.40;0.40;;;20.60;99.90;;;;;;4840583;29;20470;-51
2022/08/05 06:42:57;;;;;;;0.63;0.63;;;21.10;99.90;;;;;;4840099;29;20056;-40
2022/08/05 06:45:23;;;;;;;2.47;0.80;;;21.50;99.90;;;;;;4841813;29;20033;-39
2022/08/05 06:47:49;;;;;;;3.10;0.52;;;21.90;99.90;;;;;;4840060;29;20562;-39
2022/08/05 06:50:14;;;;;;;3.40;0.60;;;22.00;99.90;;;;;;4839121;29;20134;-40
2022/08/05 06:52:40;;;;;;;1.10;1.00;;;21.80;99.90;;;;;;4844802;29;20082;-38
2022/08/05 06:55:06;;;;;;;0.88;0.80;;;21.70;99.90;;;;;;4843536;29;20037;-42
2022/08/05 06:57:31;;;;;;;3.50;0.90;;;22.20;99.90;;;;;;4841660;29;20033;-40
2022/08/05 06:59:57;;;;;;;2.60;0.60;;;22.70;99.90;;;;;;4841718;29;20502;-39
2022/08/05 07:02:23;;;;;;;5.78;0.55;;;23.00;99.90;;;;;;4844603;29;20395;-37
2022/08/05 07:04:48;;;;;;;0.93;0.93;;;23.20;99.90;;;;;;4846112;29;20041;-39
2022/08/05 07:07:14;;;;;;;2.95;0.63;;;23.30;99.90;;;;;;4844616;29;20032;-38
2022/08/05 07:09:39;;;;;;;0.70;0.55;;;22.90;99.90;;;;;;4841906;29;20042;-36
2022/08/05 07:12:05;;;;;;;0.98;0.98;;;22.90;99.90;;;;;;4838298;29;20073;-39
2022/08/05 07:17:15;;;;;;;1.95;1.08;;;22.30;99.90;;;;;;4843048;29;20513;-39
2022/08/05 07:19:41;;;;;;;1.10;0.60;;;22.20;99.90;;;;;;4842309;29;20117;-34
2022/08/05 07:22:07;;;;;;;0.73;0.57;;;22.30;99.90;;;;;;4839987;29;20034;-36
2022/08/05 07:24:32;;;;;;;3.30;0.50;;;22.30;99.90;;;;;;4841212;29;20057;-69
2022/08/05 07:26:58;;;;;;;1.95;0.40;;;22.40;99.90;;;;;;4839269;29;20026;-40
2022/08/05 07:29:24;;;;;;;1.42;0.50;;;22.10;99.90;;;;;;4838017;29;20431;-48
2022/08/05 07:31:49;;;;;;;1.23;0.40;;;21.80;99.90;;;;;;4838738;29;20036;-37
2022/08/05 07:34:15;;;;;;;0.50;0.50;;;21.40;99.90;;;;;;4844663;29;20435;-35
2022/08/05 07:36:41;;;;;;;3.95;0.65;;;21.20;99.90;;;;;;4839840;29;20040;-39
2022/08/05 07:39:08;;;;;;;0.65;0.47;;;21.10;99.90;;;;;;4838398;29;20040;-38
2022/08/05 07:41:35;;;;;;;3.40;1.23;;;21.10;99.90;;;;;;4840632;29;20060;-41
2022/08/05 07:44:01;;;;;;;1.95;0.43;;;21.10;99.90;;;;;;4841439;29;20053;-38
2022/08/05 07:46:29;;;;;;;0.68;0.38;;;21.20;99.90;;;;;;4839561;29;20506;-35
2022/08/05 07:48:56;;;;;;;10.65;0.88;;;21.30;99.90;;;;;;4838101;29;20475;-39
2022/08/05 07:51:22;;;;;;;0.40;0.40;;;21.40;99.90;;;;;;4837610;29;20033;-40
2022/08/05 07:53:48;;;;;;;3.80;0.60;;;21.40;99.90;;;;;;4837115;29;20038;-37
2022/08/05 07:56:14;;;;;;;0.88;0.68;;;21.40;99.90;;;;;;4836385;29;20183;-40
2022/08/05 07:58:40;;;;;;;2.10;1.02;;;21.40;99.90;;;;;;4840822;29;20446;-45
2022/08/05 08:01:06;;;;;;;4.78;0.80;;;21.40;99.90;;;;;;4842962;29;20030;-40
2022/08/05 08:03:31;;;;;;;1.42;0.50;;;21.40;99.90;;;;;;4840582;29;20049;-35
2022/08/05 08:05:57;;;;;;;0.70;0.32;;;21.40;99.90;;;;;;4814016;29;20720;-38
2022/08/05 08:08:23;;;;;;;3.28;0.65;;;21.40;99.90;;;;;;4835579;29;20182;-36
2022/08/05 08:10:49;;;;;;;1.95;0.40;;;21.50;99.90;;;;;;4835299;29;20555;-52
2022/08/05 08:13:15;;;;;;;0.63;0.35;;;21.50;99.90;;;;;;4818751;29;20022;-40
2022/08/05 08:15:40;;;;;;;1.20;0.40;;;21.70;99.90;;;;;;4836671;29;20108;-37
2022/08/05 08:18:06;;;;;;;0.65;0.50;;;21.70;99.90;;;;;;4815262;29;20038;-37
2022/08/05 08:20:32;;;;;;;0.73;0.50;;;21.60;99.90;;;;;;4833258;29;20033;-44
2022/08/05 08:22:59;;;;;;;2.13;0.55;;;21.70;99.90;;;;;;4833242;29;20469;-41
2022/08/05 08:25:27;;;;;;;2.40;0.57;;;21.80;99.90;;;;;;4831346;29;20038;-40
2022/08/05 08:27:53;;;;;;;1.85;1.10;;;22.20;99.90;;;;;;4833594;29;20109;-31
2022/08/05 08:30:19;;;;;;;0.80;0.28;;;22.30;99.80;;;;;;4832386;29;20033;-36
2022/08/05 08:33:03;;;;;;;1.08;0.50;;;22.20;99.80;;;;;;4832596;29;20048;-41
2022/08/05 08:35:29;;;;;;;1.58;0.68;;;22.10;99.70;;;;;;4830589;29;20665;-39
2022/08/05 08:37:57;;;;;;;0.80;0.80;;;21.70;99.90;;;;;;4832990;29;20348;-36
2022/08/05 08:40:42;;;;;;;4.80;0.57;;;21.50;99.90;;;;;;4830689;29;20388;-39
2022/08/05 08:43:11;;;;;;;1.75;0.50;;;21.20;99.90;;;;;;4834371;29;20551;-36
2022/08/05 08:45:37;;;;;;;0.47;0.40;;;21.10;99.90;;;;;;4841017;29;20033;-37
2022/08/05 08:48:06;;;;;;;1.02;1.02;;;21.00;99.90;;;;;;4834184;29;20033;-38
2022/08/05 08:50:32;;;;;;;4.68;0.50;;;21.20;99.90;;;;;;4835129;29;20037;-34
2022/08/05 08:53:04;;;;;;;1.27;0.70;;;21.50;99.90;;;;;;4816746;29;20041;-38
2022/08/05 08:55:31;;;;;;;0.60;0.50;;;21.70;99.90;;;;;;4829794;29;20390;-41
2022/08/05 08:57:59;;;;;;;0.98;0.40;;;21.80;99.90;;;;;;4832891;29;20399;-40
2022/08/05 09:00:26;;;;;;;2.13;0.55;;;21.90;99.90;;;;;;4818360;29;20032;-39
2022/08/05 09:02:53;;;;;;;0.57;0.50;;;22.10;99.90;;;;;;4833819;29;20336;-41
2022/08/05 09:05:19;;;;;;;2.10;0.80;;;22.30;99.90;;;;;;4836130;29;20502;-36
2022/08/05 09:07:46;;;;;;;0.82;0.22;;;22.70;99.50;;;;;;4832299;29;20291;-47
2022/08/05 09:10:11;;;;;;;2.92;0.40;;;22.80;98.20;;;;;;4806230;29;20140;-37
2022/08/05 09:12:38;;;;;;;2.70;0.57;;;22.90;98.00;;;;;;4835787;29;20030;-43
2022/08/05 09:15:04;;;;;;;0.17;0.17;;;23.10;97.60;;;;;;4838540;29;20169;-39
2022/08/05 09:17:31;;;;;;;0.45;0.43;;;22.90;96.40;;;;;;4837411;29;20038;-41
2022/08/05 09:19:58;;;;;;;3.28;0.68;;;22.60;95.70;;;;;;4839427;29;20033;-41
2022/08/05 09:22:24;;;;;;;0.20;0.20;;;22.30;96.00;;;;;;4840098;29;20138;-38
2022/08/05 09:27:44;;;;;;;0.80;0.40;;;21.50;97.00;;;;;;4838389;29;20818;-40
2022/08/05 09:30:10;;;;;;;0.93;0.30;;;21.20;97.30;;;;;;4837993;29;20037;-39
2022/08/05 09:32:59;;;;;;;2.20;1.05;;;21.10;97.50;;;;;;4840644;29;20070;-37
2022/08/05 09:35:25;;;;;;;4.25;0.40;;;20.90;98.10;;;;;;4838497;29;20031;-37
2022/08/05 09:37:52;;;;;;;1.67;0.50;;;20.90;98.80;;;;;;4835690;29;20038;-39
2022/08/05 09:40:35;;;;;;;0.85;0.30;;;20.80;99.20;;;;;;4837457;29;20565;-40
2022/08/05 09:43:05;;;;;;;0.93;0.32;;;20.70;99.30;;;;;;4822501;29;20578;-36
2022/08/05 09:45:39;;;;;;;5.32;0.45;;;20.60;99.50;;;;;;4840443;29;20026;-40
2022/08/05 09:48:24;;;;;;;1.50;0.55;;;20.50;99.90;;;;;;4843171;29;20032;-38
2022/08/05 09:50:52;;;;;;;2.05;0.30;;;20.60;99.90;;;;;;4836250;29;20514;-39
2022/08/05 09:53:18;;;;;;;1.50;0.57;;;20.60;99.90;;;;;;4812602;29;20441;-37
2022/08/05 09:55:44;;;;;;;4.68;0.88;;;20.60;99.90;;;;;;4834175;29;20133;-40
2022/08/05 09:58:14;;;;;;;2.03;0.68;;;20.60;99.90;;;;;;4836543;29;20077;-37
2022/08/05 10:00:55;;;;;;;1.25;0.38;;;20.60;99.90;;;;;;4819703;29;20443;-39
2022/08/05 10:03:21;;;;;;;2.90;0.40;;;20.60;99.90;;;;;;4845297;29;20372;-35
2022/08/05 10:06:07;;;;;;;4.55;0.80;;;20.70;99.90;;;;;;4841598;29;20491;-36
2022/08/05 10:08:33;;;;;;;4.38;0.50;;;20.70;99.90;;;;;;4839420;29;20419;-38
2022/08/05 10:11:03;;;;;;;3.50;0.80;;;20.70;99.90;;;;;;4834343;29;20488;-37
2022/08/05 10:13:37;;;;;;;2.42;0.47;;;20.70;99.80;;;;;;4834744;29;20041;-40
2022/08/05 10:16:04;;;;;;;2.10;0.60;;;20.80;99.90;;;;;;4836225;29;20037;-36
2022/08/05 10:18:31;;;;;;;3.28;0.52;;;20.90;99.50;;;;;;4835069;29;20038;-42
2022/08/05 10:21:03;;;;;;;2.15;0.50;;;21.10;99.00;;;;;;4835267;29;20045;-39
2022/08/05 10:23:35;;;;;;;1.85;0.35;;;21.10;99.10;;;;;;4823818;29;20770;-32
2022/08/05 10:26:03;;;;;;;1.25;0.30;;;21.00;98.00;;;;;;4837160;29;20487;-38
2022/08/05 10:28:29;;;;;;;0.45;0.35;;;21.00;97.40;;;;;;4840470;29;20029;-35
2022/08/05 10:30:56;;;;;;;3.38;0.43;;;21.00;97.30;;;;;;4818674;29;21201;-39
2022/08/05 10:33:24;;;;;;;0.63;0.47;;;21.00;97.50;;;;;;4838928;29;20542;-46
2022/08/05 10:35:51;;;;;;;0.30;0.30;;;20.90;97.20;;;;;;4837840;29;20029;-32
2022/08/05 10:38:19;;;;;;;0.68;0.50;;;20.80;96.90;;;;;;4834469;29;20495;-41
2022/08/05 10:41:10;;;;;;;3.03;0.50;;;20.80;97.20;;;;;;4837574;29;20117;-38
2022/08/05 10:43:44;;;;;;;4.10;0.55;;;20.80;97.30;;;;;;4838280;29;20631;-36
2022/08/05 10:46:12;;;;;;;1.42;0.40;;;20.90;97.10;;;;;;4835936;29;20022;-40
2022/08/05 10:48:45;;;;;;;0.25;0.25;;;21.10;96.50;;;;;;4845012;29;20038;-49
2022/08/05 10:51:14;;;;;;;0.55;0.20;;;21.10;94.90;;;;;;4820415;29;20061;-44
2022/08/05 10:53:50;;;;;;;5.45;0.50;;;21.20;94.70;;;;;;4813091;29;20479;-35
2022/08/05 10:56:24;;;;;;;0.85;0.45;;;21.10;94.10;;;;;;4832493;29;20029;-39
2022/08/05 10:58:52;;;;;;;1.85;0.60;;;21.20;93.20;;;;;;4832397;29;20045;-50
2022/08/05 11:01:43;;;;;;;0.85;0.40;;;21.30;93.40;;;;;;4832020;29;20138;-39
2022/08/05 11:04:19;;;;;;;0.95;0.30;;;21.50;93.40;;;;;;4835234;29;20052;-37
2022/08/05 11:07:05;;;;;;;2.38;0.20;;;21.50;93.50;;;;;;4836454;29;20535;-37
2022/08/05 11:09:42;;;;;;;1.42;0.15;;;21.40;94.20;;;;;;4835623;29;20485;-37
2022/08/05 11:12:23;;;;;;;0.25;0.25;;;21.40;94.50;;;;;;4836938;29;20046;-37
2022/08/05 11:15:07;;;;;;;0.57;0.25;;;21.40;95.60;;;;;;4833474;29;20034;-39
2022/08/05 11:17:38;;;;;;;1.00;0.10;;;21.30;95.50;;;;;;4836239;29;20022;-39
2022/08/05 11:20:27;;;;;;;0.60;0.25;;;21.10;95.90;;;;;;4836750;29;20121;-40
2022/08/05 11:22:53;;;;;;;0.20;0.20;;;21.20;96.40;;;;;;4829448;29;20242;-37
2022/08/05 11:25:45;;;;;;;3.30;0.35;;;21.30;96.20;;;;;;4828097;29;20034;-36
2022/08/05 11:28:10;;;;;;;2.63;0.77;;;21.40;96.30;;;;;;4833576;29;20030;-40
2022/08/05 11:30:54;;;;;;;1.63;0.30;;;21.30;96.10;;;;;;4835350;29;20376;-37
2022/08/05 11:33:54;;;;;;;3.92;0.40;;;21.10;95.70;;;;;;4841149;29;20491;-35
2022/08/05 11:36:40;;;;;;;3.05;0.35;;;21.00;96.40;;;;;;4844963;29;20573;-36
2022/08/05 11:39:07;;;;;;;1.13;0.40;;;20.90;96.80;;;;;;4846396;29;20033;-38
2022/08/05 11:41:34;;;;;;;3.05;0.38;;;21.00;96.50;;;;;;4843390;29;20034;-34
2022/08/05 11:44:05;;;;;;;0.45;0.45;;;21.00;96.70;;;;;;4840029;29;20046;-35
2022/08/05 11:46:32;;;;;;;14.27;0.95;;;20.90;97.30;;;;;;4845879;29;20112;-40
2022/08/05 11:48:58;;;;;;;1.85;0.50;;;21.10;97.00;;;;;;4837408;29;20042;-36
2022/08/05 11:51:26;;;;;;;4.85;0.30;;;21.10;97.20;;;;;;4833206;29;20057;-33
2022/08/05 11:53:53;;;;;;;1.92;0.45;;;21.00;97.10;;;;;;4834838;29;20511;-39
2022/08/05 11:56:20;;;;;;;0.85;0.30;;;20.90;97.10;;;;;;4838241;29;20503;-36
2022/08/05 11:58:47;;;;;;;5.30;0.52;;;20.70;97.30;;;;;;4826648;29;20047;-38
2022/08/05 12:01:20;;;;;;;1.13;0.30;;;20.60;97.80;;;;;;4841950;29;20085;-36
2022/08/05 12:03:54;;;;;;;0.15;0.15;;;20.50;98.40;;;;;;4844453;29;20507;-36
2022/08/05 12:06:27;;;;;;;0.45;0.32;;;20.40;98.40;;;;;;4842017;29;20518;-38
2022/08/05 12:08:55;;;;;;;0.28;0.28;;;20.40;98.50;;;;;;4837970;29;20046;-46
2022/08/05 12:11:21;;;;;;;;;;;20.50;98.80;;;;;;4844593;29;20112;-35
2022/08/05 12:13:54;;;;;;;1.63;0.40;;;20.80;98.50;;;;;;4839276;29;19916;-34
2022/08/05 12:16:20;;;;;;;1.75;0.43;;;21.00;98.70;;;;;;4840316;29;20478;-39
2022/08/05 12:18:46;;;;;;;0.60;0.22;;;20.90;98.40;;;;;;4841428;29;20030;-42
2022/08/05 12:21:19;;;;;;;2.85;0.40;;;20.90;98.60;;;;;;4845512;29;20057;-37
2022/08/05 12:23:58;;;;;;;0.20;0.20;;;21.00;98.50;;;;;;4840277;29;20485;-38
2022/08/05 12:26:29;;;;;;;0.90;0.60;;;21.30;98.50;;;;;;4844420;29;20022;-39
2022/08/05 12:28:54;;;;;;;0.40;0.40;;;21.30;98.10;;;;;;4844750;29;20093;-41
2022/08/05 12:31:21;;;;;;;1.60;0.50;;;21.20;97.10;;;;;;4849345;29;20025;-41
2022/08/05 12:33:47;;;;;;;1.50;0.32;;;21.20;97.90;;;;;;4846344;29;20042;-39
2022/08/05 12:36:13;;;;;;;1.00;0.40;;;21.30;97.80;;;;;;4850347;29;20475;-40
2022/08/05 12:38:39;;;;;;;1.63;0.20;;;21.30;97.60;;;;;;4848932;29;20516;-37
2022/08/05 12:41:10;;;;;;;3.92;0.77;;;21.50;97.60;;;;;;4849803;29;20022;-39
2022/08/05 12:43:49;;;;;;;0.63;0.20;;;21.80;97.90;;;;;;4845975;29;20050;-40
2022/08/05 12:46:22;;;;;;;3.88;1.00;;;22.00;97.30;;;;;;4840929;29;20021;-41
2022/08/05 12:49:05;;;;;;;0.28;0.28;;;22.00;96.50;;;;;;4849039;29;20036;-36
2022/08/05 12:51:31;;;;;;;0.75;0.32;;;21.80;96.80;;;;;;4843525;29;20025;-38
2022/08/05 12:54:02;;;;;;;1.10;0.30;;;21.50;97.50;;;;;;4845615;29;20101;-40
2022/08/05 12:56:29;;;;;;;2.53;0.50;;;21.40;97.80;;;;;;4845552;29;20034;-37
2022/08/05 12:59:18;;;;;;;1.63;0.40;;;21.30;97.80;;;;;;4838746;29;20033;-41
2022/08/05 13:02:03;;;;;;;0.13;0.13;;;21.50;98.20;;;;;;4842910;29;20032;-35
2022/08/05 13:04:32;;;;;;;0.82;0.40;;;21.50;97.30;;;;;;4847757;29;20483;-38